createdAt,value
2018-04-29T13:45:23.406Z,99571
2018-04-29T13:47:53.314Z,99572
2018-04-29T13:50:23.110Z,99559
2018-04-29T13:52:53.276Z,99554
2018-04-29T13:55:23.109Z,99559
2018-04-29T13:57:52.816Z,99554
2018-04-29T14:00:22.564Z,99560
2018-04-29T14:02:52.895Z,99557
2018-04-29T14:05:23.353Z,99560
2018-04-29T14:07:53.743Z,99554
2018-04-29T14:10:23.664Z,99543
2018-04-29T14:12:53.551Z,99547
2018-04-29T14:15:24.109Z,99540
2018-04-29T14:17:53.944Z,99539
2018-04-29T14:20:24.356Z,99536
2018-04-29T14:22:54.440Z,99526
2018-04-29T14:25:24.743Z,99531
2018-04-29T14:27:54.640Z,99539
2018-04-29T14:30:24.989Z,99535
2018-04-29T14:32:54.797Z,99540
2018-04-29T14:35:25.208Z,99536
2018-04-29T14:37:55.200Z,99535
2018-04-29T14:40:25.311Z,99532
2018-04-29T14:42:55.351Z,99532
2018-04-29T14:45:25.174Z,99533
2018-04-29T14:47:55.785Z,99530
2018-04-29T14:50:26.386Z,99535
2018-04-29T14:52:56.528Z,99538
2018-04-29T14:55:26.863Z,99539
2018-04-29T14:57:56.597Z,99537
2018-04-29T15:00:26.983Z,99540
2018-04-29T15:02:57.691Z,99540
2018-04-29T15:05:28.536Z,99537
2018-04-29T15:07:58.319Z,99538
2018-04-29T15:10:29.901Z,99542
2018-04-29T15:13:04.151Z,99533
2018-04-29T15:15:34.226Z,99535
2018-04-29T15:18:04.290Z,99532
2018-04-29T15:20:34.802Z,99536
2018-04-29T15:27:13.100Z,99533
2018-04-29T16:11:51.340Z,99535
2018-04-29T16:14:22.281Z,99541
2018-04-29T16:16:52.621Z,99547
2018-04-29T16:19:22.762Z,99545
2018-04-29T16:21:52.824Z,99547
2018-04-29T16:24:22.959Z,99552
2018-04-29T16:26:52.809Z,99551
2018-04-29T16:29:22.970Z,99551
2018-04-29T16:31:52.835Z,99559
2018-04-29T16:34:23.138Z,99560
2018-04-29T16:36:53.222Z,99565
2018-04-29T16:39:23.375Z,99564
2018-04-29T16:41:53.727Z,99565
2018-04-29T16:44:23.725Z,99567
2018-04-29T16:46:53.824Z,99568
2018-04-29T16:49:23.612Z,99567
2018-04-29T16:51:53.596Z,99566
2018-04-29T16:54:23.851Z,99568
2018-04-29T16:56:54.013Z,99570
2018-04-29T16:59:24.417Z,99571
2018-04-29T17:01:54.930Z,99572
2018-04-29T17:04:25.628Z,99575
2018-04-29T17:06:55.598Z,99576
2018-04-29T17:09:25.968Z,99574
2018-04-29T17:11:56.071Z,99571
2018-04-29T17:14:26.417Z,99578
2018-04-29T17:16:56.737Z,99575
2018-04-29T17:19:26.901Z,99579
2018-04-29T17:21:57.063Z,99579
2018-04-29T17:24:27.082Z,99584
2018-04-29T17:26:56.970Z,99589
2018-04-29T17:29:27.011Z,99598
2018-04-29T17:31:57.072Z,99600
2018-04-29T17:34:27.276Z,99604
2018-04-29T17:36:57.372Z,99606
2018-04-29T17:39:27.731Z,99610
2018-04-29T17:41:57.692Z,99611
2018-04-29T17:44:28.012Z,99614
2018-04-29T17:46:57.817Z,99621
2018-04-29T17:49:27.897Z,99625
2018-04-29T17:51:58.172Z,99630
2018-04-29T17:54:27.922Z,99633
2018-04-29T17:56:57.736Z,99639
2018-04-29T17:59:27.570Z,99642
2018-04-29T18:01:57.306Z,99643
2018-04-29T18:11:14.192Z,99664
2018-04-29T18:13:44.143Z,99659
2018-04-29T18:16:14.485Z,99663
2018-04-29T18:18:44.665Z,99662
2018-04-29T18:21:15.175Z,99667
2018-04-29T18:23:45.058Z,99668
2018-04-29T18:26:15.041Z,99674
2018-04-29T18:28:45.284Z,99676
2018-04-29T18:31:15.128Z,99684
2018-04-29T18:33:45.409Z,99685
2018-04-29T18:36:15.862Z,99694
2018-04-29T18:38:46.434Z,99695
2018-04-29T18:41:16.492Z,99697
2018-04-29T18:43:46.684Z,99698
2018-04-29T18:46:16.939Z,99705
2018-04-29T18:48:46.707Z,99703
2018-04-29T18:51:17.216Z,99705
2018-04-29T18:53:46.998Z,99708
2018-04-29T18:56:17.361Z,99710
2018-04-29T18:58:47.254Z,99715
2018-04-29T19:01:17.343Z,99718
2018-04-29T19:03:47.501Z,99726
2018-04-29T19:06:17.358Z,99731
2018-04-29T19:08:47.237Z,99745
2018-04-29T19:11:17.250Z,99745
2018-04-29T19:13:47.109Z,99748
2018-04-29T19:16:17.125Z,99755
2018-04-29T19:18:47.168Z,99756
2018-04-29T19:21:17.356Z,99762
2018-04-29T19:23:47.825Z,99763
2018-04-29T19:26:17.969Z,99762
2018-04-29T19:28:48.118Z,99770
2018-04-29T19:31:18.420Z,99769
2018-04-29T19:33:48.485Z,99778
2018-04-29T19:36:18.806Z,99777
2018-04-29T19:38:48.591Z,99780
2018-04-29T19:41:18.856Z,99779
2018-04-29T19:43:49.304Z,99779
2018-04-29T19:46:19.404Z,99773
2018-04-29T19:48:49.309Z,99778
2018-04-29T19:51:19.368Z,99771
2018-04-29T19:53:49.779Z,99767
2018-04-29T19:56:19.536Z,99768
2018-04-29T19:58:49.800Z,99768
2018-04-29T20:01:19.991Z,99767
2018-04-29T20:03:50.039Z,99772
2018-04-29T20:06:20.253Z,99772
2018-04-29T20:08:50.065Z,99776
2018-04-29T20:11:20.161Z,99777
2018-04-29T20:13:50.160Z,99785
2018-04-29T20:16:20.121Z,99788
2018-04-29T20:18:50.460Z,99788
2018-04-29T20:21:20.639Z,99788
2018-04-29T20:23:50.621Z,99784
2018-04-29T20:26:20.815Z,99785
2018-04-29T20:28:50.852Z,99781
2018-04-29T20:31:20.962Z,99786
2018-04-29T20:33:51.069Z,99779
2018-04-29T20:36:21.315Z,99786
2018-04-29T20:38:51.660Z,99782
2018-04-29T20:41:22.202Z,99783
2018-04-29T20:43:52.010Z,99779
2018-04-29T20:46:22.362Z,99786
2018-04-29T20:48:52.362Z,99783
2018-04-29T20:51:22.111Z,99782
2018-04-29T20:53:52.250Z,99788
2018-04-29T20:56:22.534Z,99790
2018-04-29T20:58:52.837Z,99797
2018-04-29T21:01:23.040Z,99791
2018-04-29T21:03:53.092Z,99789
2018-04-29T21:06:23.244Z,99787
2018-04-29T21:08:53.559Z,99785
2018-04-29T21:11:23.754Z,99786
2018-04-29T21:13:53.794Z,99784
2018-04-29T21:16:23.804Z,99777
2018-04-29T21:18:54.042Z,99776
2018-04-29T21:21:23.834Z,99776
2018-04-29T21:23:53.979Z,99775
2018-04-29T21:26:24.104Z,99777
2018-04-29T21:28:53.911Z,99781
2018-04-29T21:31:23.710Z,99783
2018-04-29T21:33:53.852Z,99795
2018-04-29T21:36:24.234Z,99789
2018-04-29T21:38:54.425Z,99800
2018-04-29T21:41:24.531Z,99797
2018-04-29T21:43:54.707Z,99802
2018-04-29T21:46:24.961Z,99802
2018-04-29T21:48:55.080Z,99801
2018-04-29T21:51:24.853Z,99801
2018-04-29T21:53:55.082Z,99795
2018-04-29T21:56:25.420Z,99797
2018-04-29T21:58:55.686Z,99795
2018-04-29T22:01:25.931Z,99792
2018-04-29T22:03:56.415Z,99792
2018-04-29T22:06:26.582Z,99797
2018-04-29T22:08:56.472Z,99792
2018-04-29T22:11:26.706Z,99800
2018-04-29T22:13:57.069Z,99795
2018-04-29T22:16:26.925Z,99793
2018-04-29T22:18:56.710Z,99799
2018-04-29T22:21:27.019Z,99796
2018-04-29T22:23:57.428Z,99801
2018-04-29T22:26:27.871Z,99802
2018-04-29T22:28:57.737Z,99797
2018-04-29T22:31:27.484Z,99801
2018-04-29T22:33:57.560Z,99800
2018-04-29T22:36:27.381Z,99801
2018-04-29T22:38:57.197Z,99803
2018-04-29T22:41:27.228Z,99799
2018-04-29T22:43:57.538Z,99796
2018-04-29T22:46:27.466Z,99797
2018-04-29T22:48:57.779Z,99801
2018-04-29T22:51:28.000Z,99799
2018-04-29T22:53:58.257Z,99799
2018-04-29T22:56:28.061Z,99801
2018-04-29T22:58:57.787Z,99801
2018-04-29T23:01:27.592Z,99802
2018-04-29T23:03:57.520Z,99798
2018-04-29T23:06:27.680Z,99800
2018-04-29T23:08:57.462Z,99804
2018-04-29T23:11:27.738Z,99798
2018-04-29T23:13:57.455Z,99799
2018-04-29T23:16:27.628Z,99794
2018-04-29T23:18:57.977Z,99792
2018-04-29T23:21:28.231Z,99791
2018-04-29T23:23:58.505Z,99790
2018-04-29T23:26:28.643Z,99791
2018-04-29T23:28:58.868Z,99792
2018-04-29T23:31:28.832Z,99798
2018-04-29T23:33:58.676Z,99794
2018-04-29T23:36:28.462Z,99793
2018-04-29T23:38:58.800Z,99792
2018-04-29T23:41:28.907Z,99788
2018-04-29T23:43:59.050Z,99787
2018-04-29T23:46:28.917Z,99792
2018-04-29T23:48:59.311Z,99782
2018-04-29T23:51:29.557Z,99783
2018-04-29T23:53:59.824Z,99776
2018-04-29T23:56:29.693Z,99772
2018-04-29T23:59:00.094Z,99779
